Startpagina
METAR-TAF:

METAR-TAF

Vliegvelden :

Internationale luchthaven van Bahrein

Bahrein, Bahrein

breedte: 26-16N, lengte: 050-39E, hoogte: 2 m

Actueel weer

Dit bericht is 15 minuten geleden gemaakt, om 05:00 UTC
Wind 11 kt uit het noorden
Temperatuur 22°C
Vochtigheid 69%
Druk 1018 hPa
Zicht 10 km of meer
Weinig wolken op 3000 ft

METAR: OBBI 090500Z 36011KT 9999 FEW030 22/16 Q1018 NOSIG

Tijdstip: 08:15 (05:15 UTC)

Verwachting

Dit bericht is 6 uur en het 15 minuten geleden gemaakt, om 23:00 UTC
Verwachting geldig van 09 om 00 UTC tot 10 om 06 UTC
Wind 12 kt uit het noordnoordoosten
Zicht 10 km of meer
Gebroken wolken op 3000 ft
Kans 30% :
Tijdelijke
van 10 om 00 UTC tot 10 om 06 UTC
Wind 20 kt uit het noordoosten met uitschieters tot 35 kt
Zicht: 4000 m
Verspreide wolken op 1000 ft
Verspreide wolken op 4000 ft, Cumulonimbus.
Gebroken wolken op 8000 ft
onweer, lichte regen

TAF: OBBI 082300Z 0900/1006 02012KT 9999 BKN030 PROB30 TEMPO 1000/1006 04020G35KT 4000 -TSRA SCT010 SCT040CB BKN080

Waarnemingen en weersverwachtingen van meer dan 4000 vliegvelden (METAR en TAF).

De beschikbare stations zijn de gele en rode punten op de kaart.

Ga met uw muis naar het station om de naam te zien.

Klik dan om waarnemingen en weersverwachtingen te zien.

kaart wijzigen: klik op de groene knoppen met een zwart kruis om in te zoomen, op de groene knop met een streepje om uit te zoomen of op de groene pijlen voor aangrenzende kaarten.


METAR-TAF: